Time;durP1;ratioP1;P1;durP2;ratioP2;P2;SDS_P1;SDS_P2;PMS_P1;PMS_P2;Temp;Humidity;BMP_temperature;BMP_pressure;BME280_temperature;BME280_humidity;BME280_pressure;Samples;Min_cycle;Max_cycle;Signal;HPM_P1;HPM_P2
2023/05/18 00:07:36;;;;;;;6.70;1.80;;;;;;;7.62;69.34;100217.70;437026;1251;140373;-62
2023/05/18 00:17:42;;;;;;;5.20;1.70;;;;;;;7.51;69.43;100218.52;436902;1251;138689;-63
2023/05/18 00:27:50;;;;;;;7.20;2.60;;;;;;;7.41;69.60;100217.01;436771;1253;139589;-62
2023/05/18 00:37:56;;;;;;;6.90;2.20;;;;;;;7.26;69.85;100232.57;437258;1248;140436;-62
2023/05/18 00:48:02;;;;;;;8.90;2.40;;;;;;;7.14;70.16;100230.27;437003;1251;140419;-62
2023/05/18 00:58:08;;;;;;;4.70;1.50;;;;;;;7.10;70.57;100237.55;437158;1251;143083;-62
2023/05/18 01:08:14;;;;;;;4.70;1.40;;;;;;;7.05;70.77;100242.80;436956;1253;140750;-61
2023/05/18 01:18:27;;;;;;;5.80;1.70;;;;;;;7.04;71.22;100245.45;437004;1251;139885;-62
2023/05/18 01:28:35;;;;;;;4.00;1.80;;;;;;;7.06;71.39;100255.48;437224;1248;140803;-62
2023/05/18 01:38:42;;;;;;;5.10;2.30;;;;;;;7.05;71.61;100255.54;436828;1248;139025;-62
2023/05/18 01:48:53;;;;;;;5.90;1.60;;;;;;;7.01;71.87;100251.32;437632;1253;140213;-62
2023/05/18 01:59:00;;;;;;;5.40;1.90;;;;;;;6.98;72.14;100260.29;437748;1252;140041;-62
2023/05/18 02:09:07;;;;;;;9.70;2.30;;;;;;;6.95;72.33;100267.71;438818;1252;138938;-61
2023/05/18 02:19:14;;;;;;;6.20;1.60;;;;;;;6.91;72.46;100278.65;437066;1248;138585;-63
2023/05/18 02:29:20;;;;;;;5.00;1.70;;;;;;;6.92;72.77;100286.83;437300;1252;139803;-63
2023/05/18 02:39:26;;;;;;;9.80;2.20;;;;;;;6.88;73.09;100292.88;437343;1251;139322;-62
2023/05/18 02:49:33;;;;;;;6.20;2.30;;;;;;;6.84;73.14;100299.81;437159;1248;138979;-62
2023/05/18 02:59:39;;;;;;;6.40;1.50;;;;;;;6.78;73.23;100309.24;437284;1249;140193;-63
2023/05/18 03:09:44;;;;;;;6.80;1.40;;;;;;;6.76;73.40;100318.02;437036;1248;139520;-63
2023/05/18 03:19:51;;;;;;;12.80;2.70;;;;;;;6.75;73.34;100322.40;437034;1251;140307;-62
2023/05/18 03:29:57;;;;;;;5.80;2.50;;;;;;;6.73;73.34;100333.95;436957;1253;139912;-62
2023/05/18 03:40:11;;;;;;;9.00;2.70;;;;;;;6.76;73.40;100339.61;437087;1252;139563;-62
2023/05/18 03:50:17;;;;;;;8.80;2.60;;;;;;;6.82;73.13;100337.81;436761;1253;141710;-62
2023/05/18 04:00:23;;;;;;;7.30;3.70;;;;;;;6.94;73.10;100347.12;436280;1252;139972;-62
2023/05/18 04:10:29;;;;;;;7.10;2.10;;;;;;;7.06;72.91;100358.91;436476;1251;139263;-62
2023/05/18 04:20:36;;;;;;;8.40;2.60;;;;;;;7.22;72.69;100367.00;437225;1250;139401;-61
2023/05/18 04:30:43;;;;;;;8.70;2.00;;;;;;;7.38;72.21;100372.48;436401;1251;139210;-61
2023/05/18 04:40:49;;;;;;;4.40;2.30;;;;;;;7.63;71.94;100377.11;436763;1251;139672;-62
2023/05/18 04:50:54;;;;;;;6.00;2.30;;;;;;;7.88;71.08;100383.29;436535;1248;138969;-62
2023/05/18 05:01:00;;;;;;;3.40;1.60;;;;;;;8.35;70.33;100393.05;436652;1253;141252;-62
2023/05/18 05:11:06;;;;;;;5.50;1.80;;;;;;;9.56;69.41;100395.06;436728;1250;138996;-61
2023/05/18 05:21:12;;;;;;;5.40;2.60;;;;;;;11.74;66.32;100394.84;436975;1253;138653;-61
2023/05/18 05:31:18;;;;;;;5.50;2.50;;;;;;;13.56;62.36;100396.67;436548;1253;138658;-63
2023/05/18 05:41:24;;;;;;;5.90;1.90;;;;;;;15.66;59.35;100393.61;436434;1253;138306;-61
2023/05/18 05:51:30;;;;;;;7.60;2.40;;;;;;;16.83;55.29;100400.38;436550;1248;139017;-61
2023/05/18 06:01:36;;;;;;;7.70;2.20;;;;;;;17.75;50.43;100399.88;436911;1253;138205;-61
2023/05/18 06:11:42;;;;;;;3.50;1.50;;;;;;;19.47;47.92;100397.25;436861;1253;138576;-64
2023/05/18 06:21:47;;;;;;;2.60;1.30;;;;;;;20.00;45.65;100395.77;437104;1252;139110;-63
2023/05/18 06:31:53;;;;;;;4.00;1.70;;;;;;;19.09;44.43;100399.08;437177;1253;138260;-62
2023/05/18 06:41:59;;;;;;;6.30;2.20;;;;;;;19.23;43.86;100412.28;437831;1248;138667;-61
2023/05/18 06:52:07;;;;;;;3.90;1.70;;;;;;;19.69;43.28;100419.59;436998;1253;140107;-62
2023/05/18 07:02:13;;;;;;;3.80;1.50;;;;;;;19.91;41.99;100421.90;437471;1252;138215;-62
2023/05/18 07:12:19;;;;;;;4.60;1.80;;;;;;;19.34;42.07;100432.41;437154;1253;138568;-62
2023/05/18 07:22:25;;;;;;;3.60;1.80;;;;;;;18.90;42.01;100436.19;436901;1252;139609;-61
2023/05/18 07:32:31;;;;;;;2.00;0.90;;;;;;;18.40;42.21;100434.67;437010;1252;138900;-62
2023/05/18 07:42:37;;;;;;;2.90;1.00;;;;;;;18.64;42.12;100445.99;437312;1252;138613;-64
2023/05/18 07:52:43;;;;;;;2.40;1.10;;;;;;;18.54;41.63;100449.51;436924;1251;139431;-62
2023/05/18 08:02:49;;;;;;;5.00;1.20;;;;;;;17.48;41.97;100451.45;437548;1253;138386;-62
2023/05/18 08:12:55;;;;;;;1.10;1.00;;;;;;;17.43;42.55;100454.16;437588;1252;139262;-66
2023/05/18 08:23:01;;;;;;;3.80;1.20;;;;;;;17.07;42.67;100455.16;437425;1253;142050;-63
2023/05/18 08:33:08;;;;;;;4.60;1.50;;;;;;;17.05;43.17;100456.56;437248;1253;138507;-62
2023/05/18 08:43:21;;;;;;;4.10;1.80;;;;;;;17.30;43.29;100455.02;437621;1253;138626;-63
2023/05/18 08:53:29;;;;;;;5.30;1.00;;;;;;;17.33;43.06;100461.10;436977;1251;138596;-63
2023/05/18 09:03:36;;;;;;;4.10;1.30;;;;;;;17.45;43.21;100456.82;437745;1253;140093;-62
2023/05/18 09:13:43;;;;;;;2.00;1.60;;;;;;;17.45;43.14;100453.48;436978;1253;138460;-62
2023/05/18 09:23:50;;;;;;;1.70;1.20;;;;;;;17.80;42.95;100452.30;436795;1252;139110;-62
2023/05/18 09:33:58;;;;;;;2.00;1.00;;;;;;;17.86;42.55;100446.16;436649;1253;141299;-62
2023/05/18 09:44:08;;;;;;;1.70;1.00;;;;;;;17.87;42.75;100448.20;436978;1251;138547;-63
2023/05/18 09:54:14;;;;;;;2.20;1.20;;;;;;;17.76;42.33;100448.22;436653;1251;138117;-63
2023/05/18 10:04:21;;;;;;;2.30;1.00;;;;;;;17.78;42.40;100452.80;436731;1254;140308;-62
2023/05/18 10:14:32;;;;;;;2.50;0.70;;;;;;;17.32;42.54;100443.68;437144;1251;138279;-63
2023/05/18 10:24:42;;;;;;;3.30;1.30;;;;;;;17.47;42.72;100447.48;437190;1253;138995;-61
2023/05/18 10:34:49;;;;;;;2.10;0.70;;;;;;;17.70;42.07;100449.40;437034;1252;139216;-63
2023/05/18 10:44:56;;;;;;;6.90;1.90;;;;;;;17.53;42.45;100450.38;437178;1253;138914;-62
2023/05/18 10:55:03;;;;;;;6.00;1.10;;;;;;;17.53;42.53;100444.00;437497;1251;138726;-62
2023/05/18 11:05:11;;;;;;;3.50;1.20;;;;;;;17.36;42.97;100441.46;438401;1253;138591;-63
2023/05/18 11:15:18;;;;;;;2.50;0.60;;;;;;;17.21;42.93;100441.39;437454;1251;138795;-62
2023/05/18 11:25:44;;;;;;;2.10;0.50;;;;;;;17.09;43.22;100438.94;437563;1253;139031;-62
2023/05/18 11:36:03;;;;;;;2.10;0.50;;;;;;;16.94;43.21;100445.77;437484;1253;138403;-62
2023/05/18 11:46:21;;;;;;;4.70;1.80;;;;;;;16.70;43.55;100446.81;437503;1251;139060;-65
2023/05/18 11:56:32;;;;;;;0.70;0.60;;;;;;;16.63;43.54;100448.39;437048;1251;138126;-64
2023/05/18 12:06:39;;;;;;;2.10;0.80;;;;;;;16.39;43.85;100453.56;437307;1254;138691;-62
2023/05/18 12:16:45;;;;;;;1.70;0.90;;;;;;;16.35;44.01;100454.89;438148;1250;138697;-62
2023/05/18 12:26:52;;;;;;;2.10;0.70;;;;;;;15.91;44.91;100459.33;437331;1253;138108;-62
2023/05/18 12:36:57;;;;;;;2.20;0.80;;;;;;;16.01;45.35;100456.69;437451;1252;138648;-62
2023/05/18 12:47:04;;;;;;;4.80;1.00;;;;;;;15.92;45.58;100457.02;437814;1250;139342;-64
2023/05/18 12:57:11;;;;;;;2.60;0.90;;;;;;;15.83;45.74;100452.33;437263;1253;138839;-63
2023/05/18 13:07:17;;;;;;;6.30;1.60;;;;;;;15.74;46.22;100457.34;437741;1249;138778;-63
2023/05/18 13:17:24;;;;;;;5.90;1.30;;;;;;;15.68;46.27;100457.09;437906;1253;138260;-63
2023/05/18 13:27:31;;;;;;;2.00;0.90;;;;;;;15.49;46.59;100450.27;437788;1253;138643;-63
2023/05/18 13:37:37;;;;;;;3.90;0.80;;;;;;;15.46;47.08;100444.38;438020;1252;138148;-62
2023/05/18 13:47:49;;;;;;;3.80;1.30;;;;;;;15.66;47.16;100448.05;437780;1248;138203;-63
2023/05/18 13:57:55;;;;;;;2.70;0.90;;;;;;;15.22;47.44;100452.16;441482;1248;140616;-62
2023/05/18 14:08:00;;;;;;;5.30;1.20;;;;;;;14.94;48.05;100447.73;437415;1252;138759;-61
2023/05/18 14:18:07;;;;;;;2.90;0.70;;;;;;;14.92;48.38;100448.75;437338;1250;139581;-61
2023/05/18 14:28:13;;;;;;;2.50;0.70;;;;;;;14.83;48.35;100448.67;437054;1248;141973;-62
2023/05/18 14:38:19;;;;;;;2.90;1.00;;;;;;;14.70;48.50;100447.39;437116;1249;139277;-61
2023/05/18 14:48:24;;;;;;;0.50;0.50;;;;;;;14.59;48.91;100441.25;437772;1249;138123;-62
2023/05/18 14:58:30;;;;;;;0.60;0.60;;;;;;;14.29;49.31;100448.36;436573;1253;140234;-62
2023/05/18 15:08:36;;;;;;;1.60;0.70;;;;;;;14.20;49.74;100442.22;437029;1251;141281;-62
2023/05/18 15:18:42;;;;;;;2.80;0.80;;;;;;;13.99;50.00;100430.55;436960;1253;139611;-63
2023/05/18 15:28:49;;;;;;;1.40;0.70;;;;;;;13.72;50.58;100439.52;436952;1251;138812;-62
2023/05/18 15:38:55;;;;;;;1.00;0.70;;;;;;;13.54;51.12;100443.59;436986;1251;139341;-63
2023/05/18 15:49:01;;;;;;;2.90;0.50;;;;;;;13.33;51.69;100446.27;437008;1251;139649;-62
2023/05/18 15:59:07;;;;;;;3.30;1.50;;;;;;;13.14;52.24;100439.34;436754;1253;139330;-63
2023/05/18 16:09:13;;;;;;;0.90;0.80;;;;;;;12.88;52.63;100444.79;437122;1248;138216;-67
2023/05/18 16:19:18;;;;;;;3.10;1.00;;;;;;;12.74;53.09;100441.77;437679;1250;139973;-62
2023/05/18 16:29:24;;;;;;;2.50;1.00;;;;;;;12.57;53.78;100447.12;437235;1250;139805;-62
2023/05/18 16:39:30;;;;;;;2.00;1.30;;;;;;;12.35;54.27;100443.80;437355;1251;138938;-64
2023/05/18 16:49:36;;;;;;;1.10;0.50;;;;;;;12.28;54.80;100444.58;436183;1251;138700;-63
2023/05/18 16:59:42;;;;;;;1.10;1.00;;;;;;;12.29;55.10;100450.15;436305;1251;140157;-64
2023/05/18 17:09:48;;;;;;;3.70;1.00;;;;;;;12.26;55.65;100455.23;436885;1250;140006;-63
2023/05/18 17:19:54;;;;;;;2.30;1.10;;;;;;;12.16;56.17;100458.40;436900;1251;138900;-63
2023/05/18 17:30:00;;;;;;;1.00;0.80;;;;;;;12.11;56.51;100459.02;436994;1253;138987;-63
2023/05/18 17:40:09;;;;;;;2.80;1.50;;;;;;;12.02;56.76;100465.30;436534;1251;138910;-63
2023/05/18 17:50:15;;;;;;;2.90;1.20;;;;;;;11.92;57.15;100461.64;437140;1251;139407;-64
2023/05/18 18:00:22;;;;;;;1.40;1.00;;;;;;;11.84;57.64;100468.75;436456;1251;138815;-63
2023/05/18 18:10:30;;;;;;;1.90;1.50;;;;;;;11.76;58.09;100472.70;436787;1251;138668;-63
2023/05/18 18:20:35;;;;;;;;;;;;;;;11.69;58.46;100480.27;436804;1253;138559;-63
2023/05/18 18:30:42;;;;;;;4.10;2.10;;;;;;;11.57;58.88;100480.56;436679;1251;124823;-63
2023/05/18 18:40:49;;;;;;;3.10;2.00;;;;;;;11.45;59.42;100477.89;436815;1253;142110;-63
2023/05/18 18:50:55;;;;;;;4.30;1.80;;;;;;;11.35;60.17;100480.14;436694;1251;139333;-63
2023/05/18 19:01:01;;;;;;;3.20;1.60;;;;;;;11.28;60.52;100492.60;436428;1253;139347;-64
2023/05/18 19:11:07;;;;;;;3.20;2.70;;;;;;;11.19;60.69;100496.23;436277;1253;139146;-63
2023/05/18 19:21:14;;;;;;;4.50;1.90;;;;;;;11.11;60.91;100496.48;436602;1251;139471;-63
2023/05/18 19:31:20;;;;;;;2.90;2.00;;;;;;;11.03;61.40;100496.15;436467;1254;138376;-64
2023/05/18 19:41:26;;;;;;;3.10;2.80;;;;;;;10.97;62.24;100504.04;436360;1253;140014;-63
2023/05/18 19:51:32;;;;;;;5.80;4.60;;;;;;;10.90;62.53;100505.75;436979;1253;140652;-63
2023/05/18 20:01:38;;;;;;;3.70;1.80;;;;;;;10.83;62.66;100504.88;436309;1252;140370;-63
2023/05/18 20:11:43;;;;;;;6.70;5.50;;;;;;;10.79;62.97;100512.10;436297;1253;140338;-63
2023/05/18 20:21:49;;;;;;;6.60;4.20;;;;;;;10.75;63.31;100520.16;437001;1251;139931;-63
2023/05/18 20:31:55;;;;;;;5.70;3.90;;;;;;;10.70;63.82;100530.20;437157;1251;141042;-63
2023/05/18 20:42:01;;;;;;;2.80;2.50;;;;;;;10.47;65.77;100541.30;437215;1253;140056;-64
2023/05/18 20:52:08;;;;;;;4.50;2.70;;;;;;;10.21;67.58;100544.92;436750;1251;139790;-62
2023/05/18 21:02:15;;;;;;;3.50;2.70;;;;;;;10.05;68.93;100552.01;437308;1250;139135;-64
2023/05/18 21:12:21;;;;;;;5.50;2.40;;;;;;;9.88;70.01;100551.91;437278;1249;139076;-64
2023/05/18 21:22:27;;;;;;;5.00;3.10;;;;;;;9.72;71.00;100553.84;437223;1251;140923;-63
2023/05/18 21:32:33;;;;;;;5.60;2.70;;;;;;;9.60;71.81;100556.63;437324;1253;139802;-63
2023/05/18 21:42:43;;;;;;;4.60;3.30;;;;;;;9.52;72.78;100558.76;437073;1251;141260;-62
2023/05/18 21:52:49;;;;;;;5.70;2.90;;;;;;;9.47;73.78;100565.21;437538;1253;142355;-63
2023/05/18 22:02:55;;;;;;;5.30;3.40;;;;;;;9.42;74.61;100572.11;437117;1253;139750;-62
2023/05/18 22:13:01;;;;;;;3.70;3.20;;;;;;;9.28;75.32;100573.91;436818;1251;140140;-63
2023/05/18 22:23:08;;;;;;;2.70;2.50;;;;;;;9.18;76.26;100575.91;436683;1253;140935;-63
2023/05/18 22:33:13;;;;;;;5.50;3.60;;;;;;;9.14;77.06;100566.50;436591;1253;138970;-62
2023/05/18 22:43:19;;;;;;;3.40;3.10;;;;;;;9.18;78.00;100565.45;436789;1253;138713;-63
2023/05/18 22:53:26;;;;;;;4.40;3.50;;;;;;;9.16;78.35;100561.84;436917;1251;138890;-63
2023/05/18 23:03:32;;;;;;;3.90;3.50;;;;;;;9.18;79.02;100558.09;436888;1251;139822;-64
2023/05/18 23:13:37;;;;;;;6.40;4.20;;;;;;;9.27;79.49;100559.99;436709;1253;140205;-62
2023/05/18 23:23:44;;;;;;;4.90;4.20;;;;;;;9.32;80.25;100559.25;436531;1251;139387;-63
2023/05/18 23:33:51;;;;;;;7.00;4.60;;;;;;;9.37;80.70;100561.33;436544;1253;138994;-64
2023/05/18 23:43:58;;;;;;;4.10;3.70;;;;;;;9.38;81.06;100557.39;437416;1250;139845;-63
2023/05/18 23:54:06;;;;;;;6.60;3.70;;;;;;;9.40;81.54;100550.52;437621;1253;140160;-63
